地図

経路データ

SID SEASON NUMBER BASIN SUBBASIN NAME ISO_TIME NATURE LAT LON WMO_WIND WMO_PRES WMO_AGENCY TRACK_TYPE DIST2LAND LANDFALL IFLAG USA_AGENCY USA_ATCF_ID USA_LAT USA_LON USA_RECORD USA_STATUS USA_WIND USA_PRES USA_SSHS USA_R34_NE USA_R34_SE USA_R34_SW USA_R34_NW USA_R50_NE USA_R50_SE USA_R50_SW USA_R50_NW USA_R64_NE USA_R64_SE USA_R64_SW USA_R64_NW USA_POCI USA_ROCI USA_RMW USA_EYE TOKYO_LAT TOKYO_LON TOKYO_GRADE TOKYO_WIND TOKYO_PRES TOKYO_R50_DIR TOKYO_R50_LONG TOKYO_R50_SHORT TOKYO_R30_DIR TOKYO_R30_LONG TOKYO_R30_SHORT TOKYO_LAND CMA_LAT CMA_LON CMA_CAT CMA_WIND CMA_PRES HKO_LAT HKO_LON HKO_CAT HKO_WIND HKO_PRES NEWDELHI_LAT NEWDELHI_LON NEWDELHI_GRADE NEWDELHI_WIND NEWDELHI_PRES NEWDELHI_CI NEWDELHI_DP NEWDELHI_POCI REUNION_LAT REUNION_LON REUNION_TYPE REUNION_WIND REUNION_PRES REUNION_TNUM REUNION_CI REUNION_RMW REUNION_R34_NE REUNION_R34_SE REUNION_R34_SW REUNION_R34_NW REUNION_R50_NE REUNION_R50_SE REUNION_R50_SW REUNION_R50_NW REUNION_R64_NE REUNION_R64_SE REUNION_R64_SW REUNION_R64_NW BOM_LAT BOM_LON BOM_TYPE BOM_WIND BOM_PRES BOM_TNUM BOM_CI BOM_RMW BOM_R34_NE BOM_R34_SE BOM_R34_SW BOM_R34_NW BOM_R50_NE BOM_R50_SE BOM_R50_SW BOM_R50_NW BOM_R64_NE BOM_R64_SE BOM_R64_SW BOM_R64_NW BOM_ROCI BOM_POCI BOM_EYE BOM_POS_METHOD BOM_PRES_METHOD NADI_LAT NADI_LON NADI_CAT NADI_WIND NADI_PRES WELLINGTON_LAT WELLINGTON_LON WELLINGTON_WIND WELLINGTON_PRES DS824_LAT DS824_LON DS824_STAGE DS824_WIND DS824_PRES TD9636_LAT TD9636_LON TD9636_STAGE TD9636_WIND TD9636_PRES TD9635_LAT TD9635_LON TD9635_WIND TD9635_PRES TD9635_ROCI NEUMANN_LAT NEUMANN_LON NEUMANN_CLASS NEUMANN_WIND NEUMANN_PRES MLC_LAT MLC_LON MLC_CLASS MLC_WIND MLC_PRES USA_GUST BOM_GUST BOM_GUST_PER REUNION_GUST REUNION_GUST_PER USA_SEAHGT USA_SEARAD_NE USA_SEARAD_SE USA_SEARAD_SW USA_SEARAD_NW STORM_SPEED STORM_DIR
1907021S19043 1907 5 SI MM NOT_NAMED 1907-01-21 06:00:00 NR -19.0000 42.9000 reunion main 133 133 _____O________ -1 -19.0000 42.9000 99 9.90000 3 0
1907021S19043 1907 5 SI MM NOT_NAMED 1907-01-21 09:00:00 NR -19.1550 42.9182 main 137 137 _____P________ -1 -19.1550 42.9182 99 3 173
1907021S19043 1907 5 SI MM NOT_NAMED 1907-01-21 12:00:00 NR -19.3095 42.9371 main 138 130 _____P________ -1 -19.3095 42.9370 99 3 171
1907021S19043 1907 5 SI MM NOT_NAMED 1907-01-21 15:00:00 NR -19.4631 42.9572 main 133 133 _____P________ -1 -19.4631 42.9572 99 3 172
1907021S19043 1907 5 SI MM NOT_NAMED 1907-01-21 18:00:00 NR -19.6153 42.9793 main 137 137 _____P________ -1 -19.6153 42.9793 99 3 174
1907021S19043 1907 5 SI MM NOT_NAMED 1907-01-21 21:00:00 NR -19.7655 43.0040 main 138 132 _____P________ -1 -19.7655 43.0040 99 3 169
1907021S19043 1907 5 SI MM NOT_NAMED 1907-01-22 00:00:00 NR -19.9134 43.0319 main 132 113 _____P________ -1 -19.9134 43.0319 99 3 169
1907021S19043 1907 5 SI MM NOT_NAMED 1907-01-22 03:00:00 NR -20.0583 43.0637 main 113 106 _____P________ -1 -20.0583 43.0637 99 3 168
1907021S19043 1907 5 SI MM NOT_NAMED 1907-01-22 06:00:00 NR -20.2000 43.1000 reunion main 106 100 _____O________ -1 -20.2000 43.1000 99 9.90000 3 166
1907021S19043 1907 5 SI MM NOT_NAMED 1907-01-22 09:00:00 NR -20.3383 43.1418 main 100 80 _____P________ -1 -20.3383 43.1418 99 3 163
1907021S19043 1907 5 SI MM NOT_NAMED 1907-01-22 12:00:00 NR -20.4752 43.1913 main 80 76 _____P________ -1 -20.4752 43.1913 99 3 159
1907021S19043 1907 5 SI MM NOT_NAMED 1907-01-22 15:00:00 NR -20.6130 43.2513 main 66 63 _____P________ -1 -20.6130 43.2513 99 3 156
1907021S19043 1907 5 SI MM NOT_NAMED 1907-01-22 18:00:00 NR -20.7542 43.3243 main 62 51 _____P________ -1 -20.7542 43.3243 99 3 152
1907021S19043 1907 5 SI MM NOT_NAMED 1907-01-22 21:00:00 NR -20.9012 43.4130 main 51 41 _____P________ -1 -20.9012 43.4130 99 4 149
1907021S19043 1907 5 SI MM NOT_NAMED 1907-01-23 00:00:00 NR -21.0562 43.5200 main 33 22 _____P________ -1 -21.0562 43.5200 99 4 145
1907021S19043 1907 5 SI MM NOT_NAMED 1907-01-23 03:00:00 NR -21.2217 43.6481 main 22 0 _____P________ -1 -21.2217 43.6481 99 4 142
1907021S19043 1907 5 SI MM NOT_NAMED 1907-01-23 06:00:00 NR -21.4000 43.8000 reunion main 0 0 _____O________ -1 -21.4000 43.8000 99 9.90000 5 141
1907021S19043 1907 5 SI MM NOT_NAMED 1907-01-23 09:00:00 NR -21.6090 43.9866 main 0 0 _____P________ -1 -21.6090 43.9866 99 6 139
1907021S19043 1907 5 SI MM NOT_NAMED 1907-01-23 12:00:00 NR -21.8320 44.1994 main 0 0 _____P________ -1 -21.8320 44.1994 99 6 138
1907021S19043 1907 5 SI MM NOT_NAMED 1907-01-23 15:00:00 NR -22.0643 44.4325 main 0 0 _____P________ -1 -22.0643 44.4325 99 6 136
1907021S19043 1907 5 SI MM NOT_NAMED 1907-01-23 18:00:00 NR -22.3011 44.6803 main 0 0 _____P________ -1 -22.3011 44.6803 99 7 135
1907021S19043 1907 5 SI MM NOT_NAMED 1907-01-23 21:00:00 NR -22.5377 44.9369 main 0 0 _____P________ -1 -22.5377 44.9369 99 7 135
1907021S19043 1907 5 SI MM NOT_NAMED 1907-01-24 00:00:00 NR -22.7695 45.1964 main 0 0 _____P________ -1 -22.7695 45.1964 99 7 134
1907021S19043 1907 5 SI MM NOT_NAMED 1907-01-24 03:00:00 NR -22.9918 45.4527 main 0 0 _____P________ -1 -22.9918 45.4527 99 6 133
1907021S19043 1907 5 SI MM NOT_NAMED 1907-01-24 06:00:00 NR -23.2000 45.7000 reunion main 0 0 _____O________ -1 -23.2000 45.7000 99 9.90000 6 132
1907021S19043 1907 5 SI MM NOT_NAMED 1907-01-24 09:00:00 NR -23.3931 45.9333 main 0 0 _____P________ -1 -23.3931 45.9333 99 6 132
1907021S19043 1907 5 SI MM NOT_NAMED 1907-01-24 12:00:00 NR -23.5755 46.1625 main 0 0 _____P________ -1 -23.5755 46.1625 99 5 131
1907021S19043 1907 5 SI MM NOT_NAMED 1907-01-24 15:00:00 NR -23.7465 46.3848 main 0 0 _____P________ -1 -23.7465 46.3848 99 5 130
1907021S19043 1907 5 SI MM NOT_NAMED 1907-01-24 18:00:00 NR -23.9050 46.5976 main 0 0 _____P________ -1 -23.9050 46.5976 99 5 129
1907021S19043 1907 5 SI MM NOT_NAMED 1907-01-24 21:00:00 NR -24.0505 46.7983 main 0 0 _____P________ -1 -24.0505 46.7983 99 4 128
1907021S19043 1907 5 SI MM NOT_NAMED 1907-01-25 00:00:00 NR -24.1820 46.9840 main 0 0 _____P________ -1 -24.1820 46.9840 99 4 128
1907021S19043 1907 5 SI MM NOT_NAMED 1907-01-25 03:00:00 NR -24.2987 47.1522 main 0 0 _____P________ -1 -24.2987 47.1522 99 4 127
1907021S19043 1907 5 SI MM NOT_NAMED 1907-01-25 06:00:00 NR -24.4000 47.3000 reunion main 0 0 _____O________ -1 -24.4000 47.3000 99 9.90000 3 127
1907021S19043 1907 5 SI MM NOT_NAMED 1907-01-25 09:00:00 NR -24.4855 47.4257 main 10 10 _____P________ -1 -24.4855 47.4257 99 3 127
1907021S19043 1907 5 SI MM NOT_NAMED 1907-01-25 12:00:00 NR -24.5567 47.5312 main 23 23 _____P________ -1 -24.5567 47.5312 99 2 126
1907021S19043 1907 5 SI MM NOT_NAMED 1907-01-25 15:00:00 NR -24.6158 47.6193 main 32 32 _____P________ -1 -24.6158 47.6193 99 2 127
1907021S19043 1907 5 SI MM NOT_NAMED 1907-01-25 18:00:00 NR -24.6647 47.6929 main 46 46 _____P________ -1 -24.6647 47.6929 99 2 126
1907021S19043 1907 5 SI MM NOT_NAMED 1907-01-25 21:00:00 NR -24.7056 47.7548 main 55 55 _____P________ -1 -24.7056 47.7548 99 1 125
1907021S19043 1907 5 SI MM NOT_NAMED 1907-01-26 00:00:00 NR -24.7404 47.8081 main 55 55 _____P________ -1 -24.7404 47.8081 99 1 126
1907021S19043 1907 5 SI MM NOT_NAMED 1907-01-26 03:00:00 NR -24.7712 47.8555 main 69 69 _____P________ -1 -24.7712 47.8555 99 1 128
1907021S19043 1907 5 SI MM NOT_NAMED 1907-01-26 06:00:00 NR -24.8000 47.9000 reunion main 69 _____O________ -1 -24.8000 47.9000 99 9.90000 1 121

IBTrACS Databaseについて

本データベースは、米国NOAAが公開する1842年以降の世界の熱帯低気圧のベストトラックデータアーカイブInternational Best Track Archive for Climate Stewardship (IBTrACS)を、ウェブで閲覧しやすい形式に変換したものです。

最終更新日:2021-10-21